sensor_id;sensor_type;location;lat;lon;timestamp;P1;durP1;ratioP1;P2;durP2;ratioP2
8490;SDS011;4282;49.986;7.938;2023-04-24T00:02:15;2.90;;;1.10;;
8490;SDS011;4282;49.986;7.938;2023-04-24T00:04:43;1.97;;;1.20;;
8490;SDS011;4282;49.986;7.938;2023-04-24T00:07:12;1.70;;;1.20;;
8490;SDS011;4282;49.986;7.938;2023-04-24T00:09:41;2.13;;;1.17;;
8490;SDS011;4282;49.986;7.938;2023-04-24T00:12:12;2.20;;;1.37;;
8490;SDS011;4282;49.986;7.938;2023-04-24T00:14:40;2.43;;;1.20;;
8490;SDS011;4282;49.986;7.938;2023-04-24T00:17:09;1.83;;;1.37;;
8490;SDS011;4282;49.986;7.938;2023-04-24T00:19:37;1.77;;;1.20;;
8490;SDS011;4282;49.986;7.938;2023-04-24T00:22:05;1.13;;;1.03;;
8490;SDS011;4282;49.986;7.938;2023-04-24T00:24:33;2.37;;;0.97;;
8490;SDS011;4282;49.986;7.938;2023-04-24T00:27:02;1.13;;;1.03;;
8490;SDS011;4282;49.986;7.938;2023-04-24T00:29:33;2.40;;;1.00;;
8490;SDS011;4282;49.986;7.938;2023-04-24T00:32:01;1.63;;;1.40;;
8490;SDS011;4282;49.986;7.938;2023-04-24T00:34:29;1.90;;;1.00;;
8490;SDS011;4282;49.986;7.938;2023-04-24T00:36:58;2.17;;;1.20;;
8490;SDS011;4282;49.986;7.938;2023-04-24T00:39:26;1.60;;;0.93;;
8490;SDS011;4282;49.986;7.938;2023-04-24T00:41:54;2.13;;;1.10;;
8490;SDS011;4282;49.986;7.938;2023-04-24T00:44:23;0.93;;;0.87;;
8490;SDS011;4282;49.986;7.938;2023-04-24T00:46:53;1.03;;;0.80;;
8490;SDS011;4282;49.986;7.938;2023-04-24T00:49:22;1.03;;;0.90;;
8490;SDS011;4282;49.986;7.938;2023-04-24T00:51:50;2.07;;;0.97;;
8490;SDS011;4282;49.986;7.938;2023-04-24T00:54:19;1.00;;;0.67;;
8490;SDS011;4282;49.986;7.938;2023-04-24T00:56:47;0.90;;;0.70;;
8490;SDS011;4282;49.986;7.938;2023-04-24T00:59:16;3.50;;;1.30;;
8490;SDS011;4282;49.986;7.938;2023-04-24T01:01:45;1.40;;;0.90;;
8490;SDS011;4282;49.986;7.938;2023-04-24T01:04:16;3.60;;;1.10;;
8490;SDS011;4282;49.986;7.938;2023-04-24T01:06:45;0.83;;;0.80;;
8490;SDS011;4282;49.986;7.938;2023-04-24T01:09:13;1.20;;;0.90;;
8490;SDS011;4282;49.986;7.938;2023-04-24T01:11:42;2.53;;;0.90;;
8490;SDS011;4282;49.986;7.938;2023-04-24T01:14:11;3.17;;;0.97;;
8490;SDS011;4282;49.986;7.938;2023-04-24T01:16:39;1.23;;;0.70;;
8490;SDS011;4282;49.986;7.938;2023-04-24T01:19:07;0.93;;;0.70;;
8490;SDS011;4282;49.986;7.938;2023-04-24T01:21:40;3.63;;;1.23;;
8490;SDS011;4282;49.986;7.938;2023-04-24T01:24:12;1.73;;;0.90;;
8490;SDS011;4282;49.986;7.938;2023-04-24T01:26:40;1.93;;;0.90;;
8490;SDS011;4282;49.986;7.938;2023-04-24T01:29:08;1.03;;;0.90;;
8490;SDS011;4282;49.986;7.938;2023-04-24T01:31:36;2.40;;;1.10;;
8490;SDS011;4282;49.986;7.938;2023-04-24T01:34:05;2.97;;;1.20;;
8490;SDS011;4282;49.986;7.938;2023-04-24T01:36:34;2.20;;;0.80;;
8490;SDS011;4282;49.986;7.938;2023-04-24T01:39:02;2.37;;;1.10;;
8490;SDS011;4282;49.986;7.938;2023-04-24T01:41:33;1.27;;;1.10;;
8490;SDS011;4282;49.986;7.938;2023-04-24T01:44:02;2.73;;;1.10;;
8490;SDS011;4282;49.986;7.938;2023-04-24T01:46:30;2.73;;;0.90;;
8490;SDS011;4282;49.986;7.938;2023-04-24T01:49:00;3.57;;;0.73;;
8490;SDS011;4282;49.986;7.938;2023-04-24T01:51:28;3.57;;;1.40;;
8490;SDS011;4282;49.986;7.938;2023-04-24T01:53:57;2.87;;;1.07;;
8490;SDS011;4282;49.986;7.938;2023-04-24T01:56:25;1.50;;;0.80;;
8490;SDS011;4282;49.986;7.938;2023-04-24T01:58:56;2.10;;;0.90;;
8490;SDS011;4282;49.986;7.938;2023-04-24T02:01:25;2.27;;;0.90;;
8490;SDS011;4282;49.986;7.938;2023-04-24T02:03:53;1.13;;;0.80;;
8490;SDS011;4282;49.986;7.938;2023-04-24T02:06:21;1.43;;;1.33;;
8490;SDS011;4282;49.986;7.938;2023-04-24T02:08:49;1.80;;;0.80;;
8490;SDS011;4282;49.986;7.938;2023-04-24T02:11:17;1.83;;;0.80;;
8490;SDS011;4282;49.986;7.938;2023-04-24T02:13:46;1.67;;;1.10;;
8490;SDS011;4282;49.986;7.938;2023-04-24T02:16:18;1.90;;;0.90;;
8490;SDS011;4282;49.986;7.938;2023-04-24T02:18:46;1.50;;;1.10;;
8490;SDS011;4282;49.986;7.938;2023-04-24T02:21:14;0.73;;;0.70;;
8490;SDS011;4282;49.986;7.938;2023-04-24T02:23:42;1.63;;;1.53;;
8490;SDS011;4282;49.986;7.938;2023-04-24T02:26:11;1.10;;;0.87;;
8490;SDS011;4282;49.986;7.938;2023-04-24T02:28:39;1.10;;;1.00;;
8490;SDS011;4282;49.986;7.938;2023-04-24T02:31:07;0.93;;;0.80;;
8490;SDS011;4282;49.986;7.938;2023-04-24T02:33:38;0.87;;;0.87;;
8490;SDS011;4282;49.986;7.938;2023-04-24T02:36:06;0.70;;;0.70;;
8490;SDS011;4282;49.986;7.938;2023-04-24T02:38:35;1.17;;;0.87;;
8490;SDS011;4282;49.986;7.938;2023-04-24T02:41:03;1.67;;;0.80;;
8490;SDS011;4282;49.986;7.938;2023-04-24T02:43:31;0.70;;;0.60;;
8490;SDS011;4282;49.986;7.938;2023-04-24T02:46:00;1.40;;;0.70;;
8490;SDS011;4282;49.986;7.938;2023-04-24T02:48:28;1.77;;;1.10;;
8490;SDS011;4282;49.986;7.938;2023-04-24T02:50:59;1.63;;;0.80;;
8490;SDS011;4282;49.986;7.938;2023-04-24T02:53:27;1.53;;;0.80;;
8490;SDS011;4282;49.986;7.938;2023-04-24T02:55:55;0.60;;;0.60;;
8490;SDS011;4282;49.986;7.938;2023-04-24T02:58:24;0.93;;;0.70;;
8490;SDS011;4282;49.986;7.938;2023-04-24T03:00:53;0.90;;;0.77;;
8490;SDS011;4282;49.986;7.938;2023-04-24T03:03:21;1.37;;;0.90;;
8490;SDS011;4282;49.986;7.938;2023-04-24T03:05:50;1.23;;;0.60;;
8490;SDS011;4282;49.986;7.938;2023-04-24T03:08:21;1.80;;;1.10;;
8490;SDS011;4282;49.986;7.938;2023-04-24T03:10:49;0.90;;;0.90;;
8490;SDS011;4282;49.986;7.938;2023-04-24T03:13:17;1.00;;;0.80;;
8490;SDS011;4282;49.986;7.938;2023-04-24T03:15:45;1.10;;;1.00;;
8490;SDS011;4282;49.986;7.938;2023-04-24T03:18:14;1.00;;;0.90;;
8490;SDS011;4282;49.986;7.938;2023-04-24T03:20:42;1.30;;;1.00;;
8490;SDS011;4282;49.986;7.938;2023-04-24T03:23:10;1.37;;;1.10;;
8490;SDS011;4282;49.986;7.938;2023-04-24T03:25:41;1.33;;;1.20;;
8490;SDS011;4282;49.986;7.938;2023-04-24T03:28:09;2.03;;;1.20;;
8490;SDS011;4282;49.986;7.938;2023-04-24T03:30:37;1.33;;;1.23;;
8490;SDS011;4282;49.986;7.938;2023-04-24T03:33:06;1.50;;;1.30;;
8490;SDS011;4282;49.986;7.938;2023-04-24T03:35:34;2.23;;;1.63;;
8490;SDS011;4282;49.986;7.938;2023-04-24T03:38:03;1.13;;;1.03;;
8490;SDS011;4282;49.986;7.938;2023-04-24T03:40:32;1.73;;;1.40;;
8490;SDS011;4282;49.986;7.938;2023-04-24T03:43:03;4.93;;;1.33;;
8490;SDS011;4282;49.986;7.938;2023-04-24T03:45:31;1.37;;;1.27;;
8490;SDS011;4282;49.986;7.938;2023-04-24T03:47:59;1.63;;;1.40;;
8490;SDS011;4282;49.986;7.938;2023-04-24T03:50:28;1.53;;;1.40;;
8490;SDS011;4282;49.986;7.938;2023-04-24T03:52:56;1.80;;;1.70;;
8490;SDS011;4282;49.986;7.938;2023-04-24T03:55:25;2.10;;;1.33;;
8490;SDS011;4282;49.986;7.938;2023-04-24T03:57:53;3.60;;;1.60;;
8490;SDS011;4282;49.986;7.938;2023-04-24T04:00:24;3.00;;;1.70;;
8490;SDS011;4282;49.986;7.938;2023-04-24T04:02:52;2.00;;;1.80;;
8490;SDS011;4282;49.986;7.938;2023-04-24T04:05:20;2.00;;;1.60;;
8490;SDS011;4282;49.986;7.938;2023-04-24T04:07:49;2.77;;;1.50;;
8490;SDS011;4282;49.986;7.938;2023-04-24T04:10:17;2.30;;;1.47;;
8490;SDS011;4282;49.986;7.938;2023-04-24T04:12:45;1.50;;;1.33;;
8490;SDS011;4282;49.986;7.938;2023-04-24T04:15:13;1.73;;;1.63;;
8490;SDS011;4282;49.986;7.938;2023-04-24T04:17:44;2.10;;;1.40;;
8490;SDS011;4282;49.986;7.938;2023-04-24T04:20:12;1.40;;;1.30;;
8490;SDS011;4282;49.986;7.938;2023-04-24T04:22:41;2.13;;;1.63;;
8490;SDS011;4282;49.986;7.938;2023-04-24T04:25:09;1.80;;;1.63;;
8490;SDS011;4282;49.986;7.938;2023-04-24T04:27:38;2.63;;;2.03;;
8490;SDS011;4282;49.986;7.938;2023-04-24T04:30:07;1.87;;;1.77;;
8490;SDS011;4282;49.986;7.938;2023-04-24T04:32:36;2.93;;;1.90;;
8490;SDS011;4282;49.986;7.938;2023-04-24T04:35:07;2.80;;;1.73;;
8490;SDS011;4282;49.986;7.938;2023-04-24T04:37:35;2.13;;;1.70;;
8490;SDS011;4282;49.986;7.938;2023-04-24T04:40:05;2.80;;;1.90;;
8490;SDS011;4282;49.986;7.938;2023-04-24T04:42:36;3.23;;;2.27;;
8490;SDS011;4282;49.986;7.938;2023-04-24T04:45:06;2.47;;;2.00;;
8490;SDS011;4282;49.986;7.938;2023-04-24T04:47:37;2.27;;;1.90;;
8490;SDS011;4282;49.986;7.938;2023-04-24T04:50:09;2.37;;;1.90;;
8490;SDS011;4282;49.986;7.938;2023-04-24T04:52:37;3.27;;;2.30;;
8490;SDS011;4282;49.986;7.938;2023-04-24T04:55:06;3.10;;;2.40;;
8490;SDS011;4282;49.986;7.938;2023-04-24T04:57:35;2.87;;;2.10;;
8490;SDS011;4282;49.986;7.938;2023-04-24T05:00:03;3.37;;;2.27;;
8490;SDS011;4282;49.986;7.938;2023-04-24T05:02:35;3.33;;;2.50;;
8490;SDS011;4282;49.986;7.938;2023-04-24T05:05:04;2.97;;;2.40;;
8490;SDS011;4282;49.986;7.938;2023-04-24T05:07:36;2.73;;;2.20;;
8490;SDS011;4282;49.986;7.938;2023-04-24T05:10:05;2.90;;;2.40;;
8490;SDS011;4282;49.986;7.938;2023-04-24T05:12:34;2.40;;;2.20;;
8490;SDS011;4282;49.986;7.938;2023-04-24T05:15:02;3.20;;;2.60;;
8490;SDS011;4282;49.986;7.938;2023-04-24T05:17:31;3.10;;;2.40;;
8490;SDS011;4282;49.986;7.938;2023-04-24T05:19:59;3.00;;;2.60;;
8490;SDS011;4282;49.986;7.938;2023-04-24T05:22:30;3.37;;;2.57;;
8490;SDS011;4282;49.986;7.938;2023-04-24T05:25:01;2.77;;;2.57;;
8490;SDS011;4282;49.986;7.938;2023-04-24T05:27:29;3.00;;;2.80;;
8490;SDS011;4282;49.986;7.938;2023-04-24T05:29:57;4.20;;;2.70;;
8490;SDS011;4282;49.986;7.938;2023-04-24T05:32:25;2.90;;;2.30;;
8490;SDS011;4282;49.986;7.938;2023-04-24T05:34:54;2.50;;;2.23;;
8490;SDS011;4282;49.986;7.938;2023-04-24T05:37:23;4.63;;;2.93;;
8490;SDS011;4282;49.986;7.938;2023-04-24T05:39:51;3.40;;;2.33;;
8490;SDS011;4282;49.986;7.938;2023-04-24T05:42:22;3.57;;;3.27;;
8490;SDS011;4282;49.986;7.938;2023-04-24T05:44:50;3.40;;;2.40;;
8490;SDS011;4282;49.986;7.938;2023-04-24T05:47:19;2.60;;;2.40;;
8490;SDS011;4282;49.986;7.938;2023-04-24T05:49:48;4.40;;;2.57;;
8490;SDS011;4282;49.986;7.938;2023-04-24T05:52:16;3.70;;;2.90;;
8490;SDS011;4282;49.986;7.938;2023-04-24T05:54:44;2.90;;;2.70;;
8490;SDS011;4282;49.986;7.938;2023-04-24T05:57:13;3.20;;;2.90;;
8490;SDS011;4282;49.986;7.938;2023-04-24T05:59:43;2.70;;;2.47;;
8490;SDS011;4282;49.986;7.938;2023-04-24T06:02:12;4.87;;;2.73;;
8490;SDS011;4282;49.986;7.938;2023-04-24T06:04:40;3.80;;;2.80;;
8490;SDS011;4282;49.986;7.938;2023-04-24T06:07:09;3.33;;;2.47;;
8490;SDS011;4282;49.986;7.938;2023-04-24T06:09:38;2.70;;;2.50;;
8490;SDS011;4282;49.986;7.938;2023-04-24T06:12:06;2.73;;;2.07;;
8490;SDS011;4282;49.986;7.938;2023-04-24T06:14:35;3.60;;;2.90;;
8490;SDS011;4282;49.986;7.938;2023-04-24T06:17:05;4.43;;;2.63;;
8490;SDS011;4282;49.986;7.938;2023-04-24T06:19:34;2.00;;;1.90;;
8490;SDS011;4282;49.986;7.938;2023-04-24T06:22:02;2.40;;;2.20;;
8490;SDS011;4282;49.986;7.938;2023-04-24T06:24:30;2.73;;;2.00;;
8490;SDS011;4282;49.986;7.938;2023-04-24T06:26:58;2.17;;;1.97;;
8490;SDS011;4282;49.986;7.938;2023-04-24T06:29:27;2.13;;;1.80;;
8490;SDS011;4282;49.986;7.938;2023-04-24T06:31:55;2.07;;;1.60;;
8490;SDS011;4282;49.986;7.938;2023-04-24T06:34:26;2.83;;;1.90;;
8490;SDS011;4282;49.986;7.938;2023-04-24T06:36:55;2.10;;;1.60;;
8490;SDS011;4282;49.986;7.938;2023-04-24T06:39:24;2.80;;;2.13;;
8490;SDS011;4282;49.986;7.938;2023-04-24T06:41:52;4.03;;;2.30;;
8490;SDS011;4282;49.986;7.938;2023-04-24T06:44:21;2.67;;;2.00;;
8490;SDS011;4282;49.986;7.938;2023-04-24T06:46:49;2.13;;;1.90;;
8490;SDS011;4282;49.986;7.938;2023-04-24T06:49:17;1.97;;;1.77;;
8490;SDS011;4282;49.986;7.938;2023-04-24T06:51:48;4.00;;;1.90;;
8490;SDS011;4282;49.986;7.938;2023-04-24T06:54:16;2.10;;;1.90;;
8490;SDS011;4282;49.986;7.938;2023-04-24T06:56:44;3.27;;;2.00;;
8490;SDS011;4282;49.986;7.938;2023-04-24T06:59:14;1.80;;;1.70;;
8490;SDS011;4282;49.986;7.938;2023-04-24T07:01:43;2.17;;;1.87;;
8490;SDS011;4282;49.986;7.938;2023-04-24T07:04:11;3.03;;;1.70;;
8490;SDS011;4282;49.986;7.938;2023-04-24T07:06:39;2.27;;;2.00;;
8490;SDS011;4282;49.986;7.938;2023-04-24T07:09:10;2.40;;;2.13;;
8490;SDS011;4282;49.986;7.938;2023-04-24T07:11:39;3.00;;;1.60;;
8490;SDS011;4282;49.986;7.938;2023-04-24T07:14:07;2.17;;;1.97;;
8490;SDS011;4282;49.986;7.938;2023-04-24T07:16:35;1.90;;;1.60;;
8490;SDS011;4282;49.986;7.938;2023-04-24T07:19:04;2.87;;;1.73;;
8490;SDS011;4282;49.986;7.938;2023-04-24T07:21:32;2.13;;;1.93;;
8490;SDS011;4282;49.986;7.938;2023-04-24T07:24:00;4.33;;;2.20;;
8490;SDS011;4282;49.986;7.938;2023-04-24T07:26:31;2.00;;;1.80;;
8490;SDS011;4282;49.986;7.938;2023-04-24T07:29:00;2.00;;;1.80;;
8490;SDS011;4282;49.986;7.938;2023-04-24T07:31:28;2.43;;;2.10;;
8490;SDS011;4282;49.986;7.938;2023-04-24T07:33:56;1.93;;;1.80;;
8490;SDS011;4282;49.986;7.938;2023-04-24T07:36:25;2.50;;;2.30;;
8490;SDS011;4282;49.986;7.938;2023-04-24T07:38:53;2.80;;;2.07;;
8490;SDS011;4282;49.986;7.938;2023-04-24T07:41:22;5.63;;;2.10;;
8490;SDS011;4282;49.986;7.938;2023-04-24T07:43:53;3.43;;;2.20;;
8490;SDS011;4282;49.986;7.938;2023-04-24T07:46:21;2.53;;;1.87;;
8490;SDS011;4282;49.986;7.938;2023-04-24T07:48:50;3.63;;;2.03;;
8490;SDS011;4282;49.986;7.938;2023-04-24T07:51:19;3.73;;;1.90;;
8490;SDS011;4282;49.986;7.938;2023-04-24T07:53:47;2.00;;;1.90;;
8490;SDS011;4282;49.986;7.938;2023-04-24T07:56:15;5.47;;;2.03;;
8490;SDS011;4282;49.986;7.938;2023-04-24T07:58:44;2.07;;;1.87;;
8490;SDS011;4282;49.986;7.938;2023-04-24T08:01:15;5.13;;;2.10;;
8490;SDS011;4282;49.986;7.938;2023-04-24T08:03:43;2.50;;;2.00;;
8490;SDS011;4282;49.986;7.938;2023-04-24T08:06:11;3.07;;;1.83;;
8490;SDS011;4282;49.986;7.938;2023-04-24T08:08:40;1.93;;;1.73;;
8490;SDS011;4282;49.986;7.938;2023-04-24T08:11:08;2.40;;;2.20;;
8490;SDS011;4282;49.986;7.938;2023-04-24T08:13:36;2.70;;;2.10;;
8490;SDS011;4282;49.986;7.938;2023-04-24T08:16:04;3.17;;;1.90;;
8490;SDS011;4282;49.986;7.938;2023-04-24T08:18:35;3.20;;;2.30;;
8490;SDS011;4282;49.986;7.938;2023-04-24T08:21:04;3.07;;;2.33;;
8490;SDS011;4282;49.986;7.938;2023-04-24T08:23:32;2.87;;;1.73;;
8490;SDS011;4282;49.986;7.938;2023-04-24T08:26:00;2.77;;;2.00;;
8490;SDS011;4282;49.986;7.938;2023-04-24T08:28:28;1.80;;;1.70;;
8490;SDS011;4282;49.986;7.938;2023-04-24T08:30:57;3.37;;;2.27;;
8490;SDS011;4282;49.986;7.938;2023-04-24T08:33:25;1.73;;;1.63;;
8490;SDS011;4282;49.986;7.938;2023-04-24T08:36:01;1.67;;;1.57;;
8490;SDS011;4282;49.986;7.938;2023-04-24T08:38:30;2.30;;;1.67;;
8490;SDS011;4282;49.986;7.938;2023-04-24T08:40:59;2.77;;;2.47;;
8490;SDS011;4282;49.986;7.938;2023-04-24T08:43:29;2.63;;;1.53;;
8490;SDS011;4282;49.986;7.938;2023-04-24T08:45:59;2.37;;;1.87;;
8490;SDS011;4282;49.986;7.938;2023-04-24T08:48:28;1.70;;;1.57;;
8490;SDS011;4282;49.986;7.938;2023-04-24T08:50:57;2.50;;;1.73;;
8490;SDS011;4282;49.986;7.938;2023-04-24T08:53:28;1.80;;;1.60;;
8490;SDS011;4282;49.986;7.938;2023-04-24T08:55:58;1.90;;;1.70;;
8490;SDS011;4282;49.986;7.938;2023-04-24T08:58:26;3.07;;;1.33;;
8490;SDS011;4282;49.986;7.938;2023-04-24T09:00:55;1.83;;;1.27;;
8490;SDS011;4282;49.986;7.938;2023-04-24T09:03:24;1.40;;;1.30;;
8490;SDS011;4282;49.986;7.938;2023-04-24T09:05:55;1.53;;;1.43;;
8490;SDS011;4282;49.986;7.938;2023-04-24T09:08:24;2.53;;;1.30;;
8490;SDS011;4282;49.986;7.938;2023-04-24T09:10:55;1.20;;;1.10;;
8490;SDS011;4282;49.986;7.938;2023-04-24T09:13:26;1.97;;;1.10;;
8490;SDS011;4282;49.986;7.938;2023-04-24T09:15:55;2.47;;;1.33;;
8490;SDS011;4282;49.986;7.938;2023-04-24T09:18:25;1.73;;;1.20;;
8490;SDS011;4282;49.986;7.938;2023-04-24T09:20:57;1.40;;;1.30;;
8490;SDS011;4282;49.986;7.938;2023-04-24T09:23:26;1.43;;;1.33;;
8490;SDS011;4282;49.986;7.938;2023-04-24T09:25:58;1.30;;;1.13;;
8490;SDS011;4282;49.986;7.938;2023-04-24T09:28:30;2.27;;;1.30;;
8490;SDS011;4282;49.986;7.938;2023-04-24T09:31:02;0.90;;;0.80;;
8490;SDS011;4282;49.986;7.938;2023-04-24T09:33:34;2.07;;;0.93;;
8490;SDS011;4282;49.986;7.938;2023-04-24T09:36:02;1.07;;;1.00;;
8490;SDS011;4282;49.986;7.938;2023-04-24T09:38:32;1.97;;;1.10;;
8490;SDS011;4282;49.986;7.938;2023-04-24T09:41:04;1.40;;;1.30;;
8490;SDS011;4282;49.986;7.938;2023-04-24T09:43:34;1.73;;;1.03;;
8490;SDS011;4282;49.986;7.938;2023-04-24T09:46:04;1.30;;;1.10;;
8490;SDS011;4282;49.986;7.938;2023-04-24T09:48:34;1.10;;;0.87;;
8490;SDS011;4282;49.986;7.938;2023-04-24T09:51:04;0.90;;;0.90;;
8490;SDS011;4282;49.986;7.938;2023-04-24T09:53:35;1.10;;;1.00;;
8490;SDS011;4282;49.986;7.938;2023-04-24T09:56:09;1.80;;;1.10;;
8490;SDS011;4282;49.986;7.938;2023-04-24T09:58:38;3.40;;;1.00;;
8490;SDS011;4282;49.986;7.938;2023-04-24T10:01:06;1.37;;;1.00;;
8490;SDS011;4282;49.986;7.938;2023-04-24T10:03:35;1.33;;;1.23;;
8490;SDS011;4282;49.986;7.938;2023-04-24T10:06:04;1.70;;;0.97;;
8490;SDS011;4282;49.986;7.938;2023-04-24T10:08:34;1.23;;;0.90;;
8490;SDS011;4282;49.986;7.938;2023-04-24T10:11:03;1.60;;;1.13;;
8490;SDS011;4282;49.986;7.938;2023-04-24T10:13:34;1.77;;;0.90;;
8490;SDS011;4282;49.986;7.938;2023-04-24T10:16:03;1.13;;;1.03;;
8490;SDS011;4282;49.986;7.938;2023-04-24T10:18:32;0.83;;;0.80;;
8490;SDS011;4282;49.986;7.938;2023-04-24T10:21:01;1.93;;;0.93;;
8490;SDS011;4282;49.986;7.938;2023-04-24T10:23:29;2.13;;;0.93;;
8490;SDS011;4282;49.986;7.938;2023-04-24T10:25:58;1.30;;;1.10;;
8490;SDS011;4282;49.986;7.938;2023-04-24T10:28:28;2.17;;;1.40;;
8490;SDS011;4282;49.986;7.938;2023-04-24T10:31:00;0.90;;;0.80;;
8490;SDS011;4282;49.986;7.938;2023-04-24T10:33:29;1.80;;;1.70;;
8490;SDS011;4282;49.986;7.938;2023-04-24T10:35:58;3.87;;;1.80;;
8490;SDS011;4282;49.986;7.938;2023-04-24T10:38:27;1.87;;;1.37;;
8490;SDS011;4282;49.986;7.938;2023-04-24T10:40:57;2.13;;;1.47;;
8490;SDS011;4282;49.986;7.938;2023-04-24T10:43:26;1.90;;;1.57;;
8490;SDS011;4282;49.986;7.938;2023-04-24T10:46:04;1.63;;;1.50;;
8490;SDS011;4282;49.986;7.938;2023-04-24T10:48:35;1.40;;;1.30;;
8490;SDS011;4282;49.986;7.938;2023-04-24T10:51:03;1.90;;;1.80;;
8490;SDS011;4282;49.986;7.938;2023-04-24T10:53:32;1.70;;;1.40;;
8490;SDS011;4282;49.986;7.938;2023-04-24T10:56:03;1.70;;;1.40;;
8490;SDS011;4282;49.986;7.938;2023-04-24T10:58:38;3.13;;;1.73;;
8490;SDS011;4282;49.986;7.938;2023-04-24T11:01:13;2.33;;;1.47;;
8490;SDS011;4282;49.986;7.938;2023-04-24T11:03:54;3.67;;;2.47;;
8490;SDS011;4282;49.986;7.938;2023-04-24T11:06:28;2.97;;;1.90;;
8490;SDS011;4282;49.986;7.938;2023-04-24T11:08:59;2.63;;;1.87;;
8490;SDS011;4282;49.986;7.938;2023-04-24T11:11:31;3.03;;;1.93;;
8490;SDS011;4282;49.986;7.938;2023-04-24T11:14:06;4.13;;;2.10;;
8490;SDS011;4282;49.986;7.938;2023-04-24T11:16:41;1.77;;;1.50;;
8490;SDS011;4282;49.986;7.938;2023-04-24T11:19:17;2.00;;;1.47;;
8490;SDS011;4282;49.986;7.938;2023-04-24T11:21:47;2.00;;;1.63;;
8490;SDS011;4282;49.986;7.938;2023-04-24T11:24:27;2.10;;;1.77;;
8490;SDS011;4282;49.986;7.938;2023-04-24T11:26:57;1.97;;;1.40;;
8490;SDS011;4282;49.986;7.938;2023-04-24T11:29:39;2.43;;;1.70;;
8490;SDS011;4282;49.986;7.938;2023-04-24T11:32:18;5.00;;;1.97;;
8490;SDS011;4282;49.986;7.938;2023-04-24T11:34:51;2.47;;;2.07;;
8490;SDS011;4282;49.986;7.938;2023-04-24T11:37:21;2.10;;;1.83;;
8490;SDS011;4282;49.986;7.938;2023-04-24T11:39:50;3.63;;;2.30;;
8490;SDS011;4282;49.986;7.938;2023-04-24T11:42:21;3.83;;;1.90;;
8490;SDS011;4282;49.986;7.938;2023-04-24T11:44:51;3.10;;;2.23;;
8490;SDS011;4282;49.986;7.938;2023-04-24T11:47:23;2.57;;;1.70;;
8490;SDS011;4282;49.986;7.938;2023-04-24T11:49:55;3.27;;;2.20;;
8490;SDS011;4282;49.986;7.938;2023-04-24T11:52:23;3.23;;;1.87;;
8490;SDS011;4282;49.986;7.938;2023-04-24T11:54:52;3.47;;;2.00;;
8490;SDS011;4282;49.986;7.938;2023-04-24T11:57:20;2.73;;;2.00;;
8490;SDS011;4282;49.986;7.938;2023-04-24T11:59:49;2.47;;;2.27;;
8490;SDS011;4282;49.986;7.938;2023-04-24T12:02:24;2.47;;;2.13;;
8490;SDS011;4282;49.986;7.938;2023-04-24T12:04:53;3.30;;;2.00;;
8490;SDS011;4282;49.986;7.938;2023-04-24T12:07:22;3.23;;;2.47;;
8490;SDS011;4282;49.986;7.938;2023-04-24T12:09:55;3.47;;;2.33;;
8490;SDS011;4282;49.986;7.938;2023-04-24T12:12:25;3.07;;;1.83;;
8490;SDS011;4282;49.986;7.938;2023-04-24T12:14:54;2.50;;;1.80;;
8490;SDS011;4282;49.986;7.938;2023-04-24T12:17:26;2.70;;;2.30;;
8490;SDS011;4282;49.986;7.938;2023-04-24T12:19:59;8.23;;;2.20;;
8490;SDS011;4282;49.986;7.938;2023-04-24T12:22:28;3.50;;;2.20;;
8490;SDS011;4282;49.986;7.938;2023-04-24T12:25:11;3.97;;;2.10;;
8490;SDS011;4282;49.986;7.938;2023-04-24T12:27:40;3.83;;;2.67;;
8490;SDS011;4282;49.986;7.938;2023-04-24T12:30:10;2.37;;;2.10;;
8490;SDS011;4282;49.986;7.938;2023-04-24T12:32:44;2.93;;;2.23;;
8490;SDS011;4282;49.986;7.938;2023-04-24T12:35:13;2.77;;;2.03;;
8490;SDS011;4282;49.986;7.938;2023-04-24T12:37:42;4.40;;;3.07;;
8490;SDS011;4282;49.986;7.938;2023-04-24T12:40:11;3.03;;;2.40;;
8490;SDS011;4282;49.986;7.938;2023-04-24T12:42:42;3.50;;;2.60;;
8490;SDS011;4282;49.986;7.938;2023-04-24T12:45:11;2.30;;;2.10;;
8490;SDS011;4282;49.986;7.938;2023-04-24T12:47:43;5.93;;;2.50;;
8490;SDS011;4282;49.986;7.938;2023-04-24T12:50:13;4.67;;;2.93;;
8490;SDS011;4282;49.986;7.938;2023-04-24T12:52:42;4.03;;;2.70;;
8490;SDS011;4282;49.986;7.938;2023-04-24T12:55:11;5.47;;;3.20;;
8490;SDS011;4282;49.986;7.938;2023-04-24T12:57:39;5.50;;;2.50;;
8490;SDS011;4282;49.986;7.938;2023-04-24T13:00:08;2.67;;;2.37;;
8490;SDS011;4282;49.986;7.938;2023-04-24T13:02:37;3.50;;;2.63;;
8490;SDS011;4282;49.986;7.938;2023-04-24T13:05:08;3.83;;;2.60;;
8490;SDS011;4282;49.986;7.938;2023-04-24T13:07:36;4.20;;;2.47;;
8490;SDS011;4282;49.986;7.938;2023-04-24T13:10:05;3.83;;;2.63;;
8490;SDS011;4282;49.986;7.938;2023-04-24T13:12:34;5.00;;;2.87;;
8490;SDS011;4282;49.986;7.938;2023-04-24T13:15:03;3.30;;;2.63;;
8490;SDS011;4282;49.986;7.938;2023-04-24T13:17:32;6.23;;;3.07;;
8490;SDS011;4282;49.986;7.938;2023-04-24T13:20:00;2.57;;;2.30;;
8490;SDS011;4282;49.986;7.938;2023-04-24T13:22:31;3.30;;;2.60;;
8490;SDS011;4282;49.986;7.938;2023-04-24T13:24:59;4.73;;;2.60;;
8490;SDS011;4282;49.986;7.938;2023-04-24T13:27:27;4.80;;;2.97;;
8490;SDS011;4282;49.986;7.938;2023-04-24T13:29:55;3.73;;;2.20;;
8490;SDS011;4282;49.986;7.938;2023-04-24T13:32:24;3.80;;;2.60;;
8490;SDS011;4282;49.986;7.938;2023-04-24T13:34:53;4.10;;;2.70;;
8490;SDS011;4282;49.986;7.938;2023-04-24T13:37:21;4.50;;;2.93;;
8490;SDS011;4282;49.986;7.938;2023-04-24T13:39:52;2.90;;;2.60;;
8490;SDS011;4282;49.986;7.938;2023-04-24T13:42:21;3.50;;;2.43;;
8490;SDS011;4282;49.986;7.938;2023-04-24T13:44:49;3.50;;;2.87;;
8490;SDS011;4282;49.986;7.938;2023-04-24T13:47:19;4.73;;;2.50;;
8490;SDS011;4282;49.986;7.938;2023-04-24T13:49:47;4.17;;;2.80;;
8490;SDS011;4282;49.986;7.938;2023-04-24T13:52:15;5.20;;;2.97;;
8490;SDS011;4282;49.986;7.938;2023-04-24T13:54:43;2.63;;;2.33;;
8490;SDS011;4282;49.986;7.938;2023-04-24T13:57:14;5.03;;;2.63;;
8490;SDS011;4282;49.986;7.938;2023-04-24T13:59:43;5.13;;;2.50;;
8490;SDS011;4282;49.986;7.938;2023-04-24T14:02:11;4.67;;;2.90;;
8490;SDS011;4282;49.986;7.938;2023-04-24T14:04:39;4.53;;;2.60;;
8490;SDS011;4282;49.986;7.938;2023-04-24T14:07:08;6.13;;;2.53;;
8490;SDS011;4282;49.986;7.938;2023-04-24T14:09:36;4.73;;;2.47;;
8490;SDS011;4282;49.986;7.938;2023-04-24T14:12:04;5.07;;;3.87;;
8490;SDS011;4282;49.986;7.938;2023-04-24T14:14:35;3.10;;;2.67;;
8490;SDS011;4282;49.986;7.938;2023-04-24T14:17:03;3.70;;;3.00;;
8490;SDS011;4282;49.986;7.938;2023-04-24T14:19:32;3.43;;;3.00;;
8490;SDS011;4282;49.986;7.938;2023-04-24T14:22:00;4.17;;;2.80;;
8490;SDS011;4282;49.986;7.938;2023-04-24T14:24:28;4.00;;;2.67;;
8490;SDS011;4282;49.986;7.938;2023-04-24T14:26:57;3.23;;;2.87;;
8490;SDS011;4282;49.986;7.938;2023-04-24T14:29:25;3.90;;;2.73;;
8490;SDS011;4282;49.986;7.938;2023-04-24T14:31:56;4.97;;;2.77;;
8490;SDS011;4282;49.986;7.938;2023-04-24T14:34:24;2.93;;;2.63;;
8490;SDS011;4282;49.986;7.938;2023-04-24T14:36:52;3.40;;;2.50;;
8490;SDS011;4282;49.986;7.938;2023-04-24T14:39:21;3.33;;;2.27;;
8490;SDS011;4282;49.986;7.938;2023-04-24T14:41:49;3.57;;;2.90;;
8490;SDS011;4282;49.986;7.938;2023-04-24T14:44:18;3.40;;;2.20;;
8490;SDS011;4282;49.986;7.938;2023-04-24T14:46:47;3.87;;;2.90;;
8490;SDS011;4282;49.986;7.938;2023-04-24T14:49:18;3.27;;;2.43;;
8490;SDS011;4282;49.986;7.938;2023-04-24T14:51:46;3.47;;;2.50;;
8490;SDS011;4282;49.986;7.938;2023-04-24T14:54:15;4.17;;;2.60;;
8490;SDS011;4282;49.986;7.938;2023-04-24T14:56:43;4.03;;;2.50;;
8490;SDS011;4282;49.986;7.938;2023-04-24T14:59:11;4.77;;;2.83;;
8490;SDS011;4282;49.986;7.938;2023-04-24T15:01:40;3.20;;;2.63;;
8490;SDS011;4282;49.986;7.938;2023-04-24T15:04:08;3.97;;;2.63;;
8490;SDS011;4282;49.986;7.938;2023-04-24T15:06:39;4.50;;;2.80;;
8490;SDS011;4282;49.986;7.938;2023-04-24T15:09:08;2.90;;;2.60;;
8490;SDS011;4282;49.986;7.938;2023-04-24T15:11:36;3.67;;;2.73;;
8490;SDS011;4282;49.986;7.938;2023-04-24T15:14:04;4.43;;;2.40;;
8490;SDS011;4282;49.986;7.938;2023-04-24T15:16:32;3.60;;;2.57;;
8490;SDS011;4282;49.986;7.938;2023-04-24T15:19:01;3.20;;;2.50;;
8490;SDS011;4282;49.986;7.938;2023-04-24T15:21:29;3.90;;;2.70;;
8490;SDS011;4282;49.986;7.938;2023-04-24T15:24:00;2.90;;;2.40;;
8490;SDS011;4282;49.986;7.938;2023-04-24T15:26:28;3.13;;;2.83;;
8490;SDS011;4282;49.986;7.938;2023-04-24T15:28:56;3.53;;;2.80;;